createdAt,value
2022-09-14T00:01:27.137Z,99904.22
2022-09-14T00:03:57.366Z,99901.69
2022-09-14T00:06:27.873Z,99906.47
2022-09-14T00:08:58.113Z,99904.38
2022-09-14T00:11:28.054Z,99907.22
2022-09-14T00:13:57.803Z,99905.69
2022-09-14T00:16:27.974Z,99908.22
2022-09-14T00:19:05.516Z,99904.53
2022-09-14T00:21:36.042Z,99903.00
2022-09-14T00:24:08.357Z,99897.06
2022-09-14T00:26:36.314Z,99889.59
2022-09-14T00:29:05.356Z,99887.53
2022-09-14T00:31:34.714Z,99885.50
2022-09-14T00:34:03.690Z,99874.66
2022-09-14T00:36:32.337Z,99867.53
2022-09-14T00:39:01.716Z,99858.72
2022-09-14T00:41:31.802Z,99864.84
2022-09-14T00:44:02.062Z,99863.81
2022-09-14T00:46:31.517Z,99860.78
2022-09-14T00:49:01.446Z,99853.63
2022-09-14T00:51:31.746Z,99849.91
2022-09-14T00:54:01.919Z,99854.81
2022-09-14T00:56:29.637Z,99851.59
2022-09-14T00:58:59.740Z,99847.22
2022-09-14T01:01:28.328Z,99848.56
2022-09-14T01:03:56.163Z,99847.09
2022-09-14T01:06:35.419Z,99846.44
2022-09-14T01:09:16.097Z,99851.09
2022-09-14T01:12:06.876Z,99850.75
2022-09-14T01:14:41.816Z,99859.13
2022-09-14T01:17:15.581Z,99856.31
2022-09-14T01:20:05.110Z,99861.94
2022-09-14T01:22:37.996Z,99858.00
2022-09-14T01:25:18.144Z,99850.34
2022-09-14T01:27:51.558Z,99835.59
2022-09-14T01:30:23.326Z,99843.75
2022-09-14T01:32:56.153Z,99835.00
2022-09-14T01:35:29.840Z,99838.50
2022-09-14T01:38:02.526Z,99833.72
2022-09-14T01:40:34.066Z,99834.50
2022-09-14T01:43:10.810Z,99840.03
2022-09-14T01:45:42.138Z,99839.19
2022-09-14T01:48:12.619Z,99840.25
2022-09-14T01:50:43.666Z,99836.03
2022-09-14T01:53:16.554Z,99830.81
2022-09-14T01:55:49.550Z,99844.59
2022-09-14T01:58:25.797Z,99841.69
2022-09-14T02:00:57.127Z,99829.41
2022-09-14T02:03:29.170Z,99825.00
2022-09-14T02:06:05.040Z,99829.56
2022-09-14T02:08:34.472Z,99837.91
2022-09-14T02:11:02.906Z,99836.91
2022-09-14T02:13:32.197Z,99846.13
2022-09-14T02:16:00.000Z,99850.16
2022-09-14T02:18:27.834Z,99858.00
2022-09-14T02:21:00.111Z,99844.34
2022-09-14T02:23:28.211Z,99841.09
2022-09-14T02:25:56.655Z,99849.75
2022-09-14T02:28:24.421Z,99848.03
2022-09-14T02:31:18.093Z,99844.81
2022-09-14T02:33:53.931Z,99848.69
2022-09-14T02:36:33.162Z,99853.31
2022-09-14T02:39:07.747Z,99851.28
2022-09-14T02:41:42.069Z,99850.25
2022-09-14T02:44:19.860Z,99844.69
2022-09-14T02:46:59.196Z,99856.94
2022-09-14T02:49:35.491Z,99854.00
2022-09-14T02:52:08.986Z,99856.03
2022-09-14T02:54:41.424Z,99855.78
2022-09-14T02:57:09.891Z,99862.81
2022-09-14T02:59:37.814Z,99867.72
2022-09-14T03:02:06.910Z,99862.69
2022-09-14T03:04:34.698Z,99854.94
2022-09-14T03:07:02.380Z,99849.34
2022-09-14T03:09:30.465Z,99855.63
2022-09-14T03:11:58.257Z,99840.94
2022-09-14T03:14:26.093Z,99840.75
2022-09-14T03:16:53.805Z,99835.47
2022-09-14T03:19:22.918Z,99838.06
2022-09-14T03:21:50.633Z,99833.31
2022-09-14T03:24:18.346Z,99818.53
2022-09-14T03:26:47.226Z,99815.97
2022-09-14T03:29:14.933Z,99818.28
2022-09-14T03:31:42.690Z,99816.91
2022-09-14T03:34:11.557Z,99822.09
2022-09-14T03:36:40.720Z,99815.34
2022-09-14T03:39:09.180Z,99818.53
2022-09-14T03:41:36.928Z,99815.31
2022-09-14T03:44:04.739Z,99822.25
2022-09-14T03:46:32.577Z,99823.59
2022-09-14T03:49:00.385Z,99823.38
2022-09-14T03:51:28.186Z,99827.50
2022-09-14T03:53:57.321Z,99829.34
2022-09-14T03:56:25.062Z,99833.88
2022-09-14T03:58:53.212Z,99832.53
2022-09-14T04:01:23.731Z,99837.91
2022-09-14T04:03:51.824Z,99833.81
2022-09-14T04:06:20.438Z,99833.41
2022-09-14T04:08:48.927Z,99837.00
2022-09-14T04:11:20.477Z,99829.94
2022-09-14T04:13:49.204Z,99832.97
2022-09-14T04:16:18.467Z,99835.19
2022-09-14T04:18:46.220Z,99831.09
2022-09-14T04:21:15.847Z,99832.00
2022-09-14T04:24:12.858Z,99831.69
2022-09-14T04:26:34.006Z,99832.47
2022-09-14T04:29:01.805Z,99831.84
2022-09-14T04:31:29.925Z,99834.84
2022-09-14T04:33:58.153Z,99833.88
2022-09-14T04:36:30.738Z,99836.63
2022-09-14T04:39:00.075Z,99829.56
2022-09-14T04:41:29.212Z,99828.53
2022-09-14T04:43:59.148Z,99837.34
2022-09-14T04:46:28.975Z,99836.53
2022-09-14T04:48:56.765Z,99838.72
2022-09-14T04:51:26.502Z,99840.09
2022-09-14T04:53:56.347Z,99828.94
2022-09-14T04:56:25.228Z,99837.56
2022-09-14T04:58:55.897Z,99836.88
2022-09-14T05:01:27.083Z,99841.44
2022-09-14T05:03:55.601Z,99835.34
2022-09-14T05:06:25.376Z,99842.47
2022-09-14T05:08:54.530Z,99832.75
2022-09-14T05:11:24.145Z,99837.34
2022-09-14T05:13:52.510Z,99838.38
2022-09-14T05:16:22.348Z,99834.44
2022-09-14T05:18:54.612Z,99840.03
2022-09-14T05:21:24.230Z,99832.94
2022-09-14T05:23:54.998Z,99831.75
2022-09-14T05:26:23.082Z,99834.22
2022-09-14T05:28:53.048Z,99824.97
2022-09-14T05:31:20.962Z,99827.16
2022-09-14T05:33:49.034Z,99833.28
2022-09-14T05:36:18.637Z,99834.34
2022-09-14T05:38:46.421Z,99834.53
2022-09-14T05:41:15.712Z,99837.75
2022-09-14T05:43:44.449Z,99837.41
2022-09-14T05:46:14.382Z,99838.63
2022-09-14T05:48:43.020Z,99837.44
2022-09-14T05:51:13.885Z,99830.31
2022-09-14T05:53:43.210Z,99831.31
2022-09-14T05:56:12.972Z,99833.72
2022-09-14T05:58:42.113Z,99837.09
2022-09-14T06:01:11.470Z,99840.81
2022-09-14T06:03:39.791Z,99836.09
2022-09-14T06:06:09.544Z,99838.28
2022-09-14T06:08:37.586Z,99837.59
2022-09-14T06:11:08.492Z,99838.78
2022-09-14T06:13:36.506Z,99835.03
2022-09-14T06:16:05.260Z,99843.88
2022-09-14T06:18:33.722Z,99852.97
2022-09-14T06:21:01.769Z,99855.44
2022-09-14T06:23:30.829Z,99857.50
2022-09-14T06:26:00.169Z,99853.44
2022-09-14T06:28:30.273Z,99861.53
2022-09-14T06:30:58.373Z,99858.47
2022-09-14T06:33:26.453Z,99857.44
2022-09-14T06:35:58.492Z,99858.91
2022-09-14T06:38:27.067Z,99852.16
2022-09-14T06:40:55.869Z,99849.13
2022-09-14T06:43:24.005Z,99857.84
2022-09-14T06:46:00.635Z,99850.00
2022-09-14T06:48:28.617Z,99848.34
2022-09-14T06:50:56.318Z,99847.53
2022-09-14T06:53:24.374Z,99849.88
2022-09-14T06:55:52.577Z,99855.16
2022-09-14T06:58:20.401Z,99855.00
2022-09-14T07:00:48.137Z,99855.50
2022-09-14T07:03:17.292Z,99858.53
2022-09-14T07:05:45.052Z,99861.09
2022-09-14T07:08:12.786Z,99857.72
2022-09-14T07:10:43.066Z,99868.25
2022-09-14T07:13:10.882Z,99861.47
2022-09-14T07:15:38.558Z,99860.78
2022-09-14T07:18:06.435Z,99856.47
2022-09-14T07:20:35.976Z,99856.47
2022-09-14T07:23:03.663Z,99858.34
2022-09-14T07:25:31.431Z,99853.44
2022-09-14T07:28:00.647Z,99855.13
2022-09-14T07:30:28.870Z,99860.09
2022-09-14T07:32:56.670Z,99874.84
2022-09-14T07:35:24.488Z,99868.41
2022-09-14T07:37:53.632Z,99877.22
2022-09-14T07:40:23.881Z,99883.00
2022-09-14T07:42:57.290Z,99870.75
2022-09-14T07:45:25.644Z,99885.34
2022-09-14T07:47:53.334Z,99873.31
2022-09-14T07:50:21.129Z,99873.84
2022-09-14T07:52:51.035Z,99875.34
2022-09-14T07:55:20.434Z,99867.06
2022-09-14T07:57:56.122Z,99876.50
2022-09-14T08:00:25.205Z,99884.66
2022-09-14T08:02:53.782Z,99880.94
2022-09-14T08:05:21.794Z,99878.59
2022-09-14T08:07:54.785Z,99885.22
2022-09-14T08:10:24.054Z,99899.34
2022-09-14T08:12:52.844Z,99901.69
2022-09-14T08:15:23.206Z,99896.75
2022-09-14T08:17:54.097Z,99898.28
2022-09-14T08:20:22.201Z,99908.81
2022-09-14T08:22:49.999Z,99914.53
2022-09-14T08:25:17.893Z,99914.03
2022-09-14T08:27:46.967Z,99908.19
2022-09-14T08:30:15.168Z,99928.63
2022-09-14T08:32:43.001Z,99929.66
2022-09-14T08:35:10.844Z,99935.56
2022-09-14T08:37:38.504Z,99932.50
2022-09-14T08:40:07.058Z,99935.50
2022-09-14T08:42:35.065Z,99942.47
2022-09-14T08:45:09.834Z,99939.88
2022-09-14T08:47:39.734Z,99944.44
2022-09-14T08:50:14.837Z,99951.25
2022-09-14T08:52:45.146Z,99955.03
2022-09-14T08:55:29.432Z,99957.19
2022-09-14T08:58:02.157Z,99962.66
2022-09-14T09:00:40.934Z,99954.56
2022-09-14T09:03:32.399Z,99960.09
2022-09-14T09:06:10.153Z,99951.69
2022-09-14T09:08:47.362Z,99962.53
2022-09-14T09:11:19.613Z,99962.59
2022-09-14T09:13:49.640Z,99960.47
2022-09-14T09:16:22.894Z,99959.56
2022-09-14T09:18:56.280Z,99964.69
2022-09-14T09:21:29.712Z,99967.53
2022-09-14T09:24:05.241Z,99961.28
2022-09-14T09:26:34.017Z,99961.91
2022-09-14T09:29:03.737Z,99964.59
2022-09-14T09:31:36.047Z,99969.28
2022-09-14T09:34:04.033Z,99960.44
2022-09-14T09:36:37.551Z,99955.38
2022-09-14T09:39:06.719Z,99957.38
2022-09-14T09:41:44.984Z,99965.66
2022-09-14T09:44:13.113Z,99955.22
2022-09-14T09:46:48.101Z,99953.69
2022-09-14T09:49:20.388Z,99955.03
2022-09-14T09:51:48.629Z,99956.34
2022-09-14T09:54:34.273Z,99956.16
2022-09-14T09:57:04.229Z,99947.69
2022-09-14T09:59:36.227Z,99955.81
2022-09-14T10:02:28.682Z,99953.81
2022-09-14T10:05:02.038Z,99954.59
2022-09-14T10:07:32.186Z,99940.72
2022-09-14T10:10:06.484Z,99938.13
2022-09-14T10:12:35.238Z,99937.03
2022-09-14T10:15:16.305Z,99934.09
2022-09-14T10:17:57.835Z,99936.16
2022-09-14T10:20:27.065Z,99937.63
2022-09-14T10:22:54.901Z,99939.75
2022-09-14T10:25:25.154Z,99946.94
2022-09-14T10:28:00.596Z,99941.84
2022-09-14T10:30:30.241Z,99946.25
2022-09-14T10:33:02.375Z,99946.53
2022-09-14T10:35:40.512Z,99942.16
2022-09-14T10:38:29.786Z,99942.75
2022-09-14T10:41:05.613Z,99953.38
2022-09-14T10:43:53.079Z,99943.00
2022-09-14T10:46:26.560Z,99963.19
2022-09-14T10:49:12.157Z,99963.69
2022-09-14T10:51:50.402Z,99960.19
2022-09-14T10:54:37.121Z,99964.84
2022-09-14T10:57:15.522Z,99964.53
2022-09-14T10:59:53.529Z,99954.47
2022-09-14T11:02:58.971Z,99966.97
2022-09-14T11:05:31.652Z,99963.56
2022-09-14T11:08:15.580Z,99966.97
2022-09-14T11:11:00.701Z,99971.25
2022-09-14T11:13:44.933Z,99965.75
2022-09-14T11:16:25.299Z,99969.13
2022-09-14T11:19:03.821Z,99970.66
2022-09-14T11:21:42.001Z,99971.38
2022-09-14T11:24:19.193Z,99966.06
2022-09-14T11:26:54.903Z,99969.06
2022-09-14T11:29:27.626Z,99964.53
2022-09-14T11:32:19.408Z,99967.06
2022-09-14T11:34:54.612Z,99968.97
2022-09-14T11:37:30.713Z,99965.00
2022-09-14T11:40:06.761Z,99962.13
2022-09-14T11:42:39.408Z,99964.34
2022-09-14T11:45:20.322Z,99964.84
2022-09-14T11:47:54.049Z,99973.66
2022-09-14T11:50:25.121Z,99984.16
2022-09-14T11:53:03.730Z,99985.91
2022-09-14T11:55:32.037Z,99985.84
2022-09-14T11:58:19.473Z,99986.47
2022-09-14T12:01:02.440Z,99990.13
2022-09-14T12:04:11.146Z,99983.59
2022-09-14T12:06:57.771Z,99984.19
2022-09-14T12:09:54.920Z,99997.19
2022-09-14T12:12:34.418Z,99995.38
2022-09-14T12:15:16.858Z,99990.00
2022-09-14T12:17:45.498Z,99988.31
2022-09-14T12:20:40.462Z,99988.28
2022-09-14T12:23:20.595Z,99994.47
2022-09-14T12:25:58.314Z,99987.72
2022-09-14T12:28:30.309Z,99982.81
2022-09-14T12:31:33.321Z,99989.09
2022-09-14T12:34:16.726Z,99979.28
2022-09-14T12:37:07.639Z,99988.28
2022-09-14T12:39:39.076Z,99987.41
2022-09-14T12:42:28.595Z,99987.47
2022-09-14T12:44:56.677Z,99985.88
2022-09-14T12:47:56.321Z,99976.13
2022-09-14T12:50:24.340Z,99966.41
2022-09-14T12:53:27.029Z,99966.97
2022-09-14T12:56:03.978Z,99962.59
2022-09-14T12:58:44.066Z,99972.53
2022-09-14T13:01:24.859Z,99973.84
2022-09-14T13:03:56.078Z,99971.72
2022-09-14T13:06:25.870Z,99974.00
2022-09-14T13:08:57.889Z,99970.22
2022-09-14T13:11:31.877Z,99964.56
2022-09-14T13:14:01.339Z,99965.81
2022-09-14T13:16:38.997Z,99965.63
2022-09-14T13:19:21.265Z,99963.06
2022-09-14T13:21:50.080Z,99954.41
2022-09-14T13:24:34.638Z,99958.84
2022-09-14T13:27:04.130Z,99954.94
2022-09-14T13:29:32.183Z,99951.63
2022-09-14T13:32:03.663Z,99946.56
2022-09-14T13:34:38.352Z,99948.66
2022-09-14T13:37:06.661Z,99952.09
2022-09-14T13:39:36.946Z,99954.09
2022-09-14T13:42:06.051Z,99946.56
2022-09-14T13:44:36.267Z,99949.53
2022-09-14T13:47:06.739Z,99940.34
2022-09-14T13:49:37.293Z,99943.28
2022-09-14T13:52:57.024Z,99942.31
2022-09-14T13:55:23.621Z,99943.56
2022-09-14T13:58:20.945Z,99949.06
2022-09-14T14:01:00.281Z,99944.41
2022-09-14T14:03:32.228Z,99949.91
2022-09-14T14:06:16.970Z,99937.25
2022-09-14T14:08:44.923Z,99939.94
2022-09-14T14:11:12.645Z,99937.66
2022-09-14T14:13:40.504Z,99934.53
2022-09-14T14:16:18.170Z,99935.09
2022-09-14T14:18:53.057Z,99927.59
2022-09-14T14:21:31.457Z,99919.31
2022-09-14T14:24:19.572Z,99931.75
2022-09-14T14:26:51.640Z,99930.66
2022-09-14T14:29:19.720Z,99926.69
2022-09-14T14:31:47.761Z,99928.81
2022-09-14T14:34:21.359Z,99932.59
2022-09-14T14:36:51.096Z,99931.63
2022-09-14T14:39:20.498Z,99932.13
2022-09-14T14:41:49.793Z,99930.72
2022-09-14T14:44:20.514Z,99931.78
2022-09-14T14:46:48.609Z,99938.06
2022-09-14T14:49:18.430Z,99951.81
2022-09-14T14:51:46.139Z,99940.56
2022-09-14T14:54:16.630Z,99933.69
2022-09-14T14:56:46.411Z,99923.09
2022-09-14T14:59:27.199Z,99919.41
2022-09-14T15:01:56.914Z,99923.94
2022-09-14T15:04:25.379Z,99925.28
2022-09-14T15:06:53.553Z,99945.34
2022-09-14T15:09:24.812Z,99949.13
2022-09-14T15:11:54.664Z,99945.69
2022-09-14T15:14:27.076Z,99948.94
2022-09-14T15:16:59.714Z,99948.09
2022-09-14T15:19:27.820Z,99949.31
2022-09-14T15:22:00.767Z,99946.28
2022-09-14T15:24:30.924Z,99936.25
2022-09-14T15:26:59.395Z,99946.94
2022-09-14T15:29:27.197Z,99935.25
2022-09-14T15:31:55.423Z,99943.53
2022-09-14T15:34:23.253Z,99956.28
2022-09-14T15:36:53.594Z,99962.59
2022-09-14T15:39:23.098Z,99974.69
2022-09-14T15:41:53.105Z,99994.13
2022-09-14T15:44:20.925Z,100005.25
2022-09-14T15:46:49.017Z,99970.06
2022-09-14T15:49:18.757Z,99970.06
2022-09-14T15:51:52.537Z,99970.16
2022-09-14T15:54:22.917Z,99985.34
2022-09-14T15:56:53.924Z,99978.13
2022-09-14T15:59:22.679Z,99989.81
2022-09-14T16:01:50.740Z,99979.34
2022-09-14T16:04:18.970Z,99976.66
2022-09-14T16:06:47.204Z,99980.47
2022-09-14T16:09:16.944Z,99985.59
2022-09-14T16:11:44.634Z,100000.31
2022-09-14T16:14:13.899Z,100000.53
2022-09-14T16:16:41.982Z,99988.75
2022-09-14T16:19:12.550Z,99991.06
2022-09-14T16:21:41.606Z,100006.09
2022-09-14T16:24:13.606Z,100017.13
2022-09-14T16:26:41.982Z,100017.22
2022-09-14T16:29:13.910Z,100013.91
2022-09-14T16:31:43.956Z,100013.00
2022-09-14T16:34:15.161Z,100012.53
2022-09-14T16:36:43.546Z,100019.78
2022-09-14T16:39:14.700Z,100014.28
2022-09-14T16:41:43.358Z,100026.59
2022-09-14T16:44:16.246Z,100027.84
2022-09-14T16:46:44.507Z,100027.06
2022-09-14T16:49:12.721Z,100028.81
2022-09-14T16:51:40.797Z,100041.41
2022-09-14T16:54:08.944Z,100040.59
2022-09-14T16:56:38.546Z,100046.19
2022-09-14T16:59:07.391Z,100048.59
2022-09-14T17:01:37.962Z,100039.16
2022-09-14T17:04:08.454Z,100037.31
2022-09-14T17:06:38.310Z,100038.84
2022-09-14T17:09:08.487Z,100049.34
2022-09-14T17:11:37.705Z,100056.72
2022-09-14T17:14:05.917Z,100062.34
2022-09-14T17:16:33.794Z,100084.50
2022-09-14T17:19:04.234Z,100077.47
2022-09-14T17:21:34.153Z,100075.31
2022-09-14T17:24:02.753Z,100067.50
2022-09-14T17:26:30.469Z,100069.00
2022-09-14T17:29:00.574Z,100060.53
2022-09-14T17:31:30.924Z,100060.19
2022-09-14T17:34:00.558Z,100059.88
2022-09-14T17:36:30.342Z,100053.41
2022-09-14T17:38:59.345Z,100052.06
2022-09-14T17:41:28.293Z,100061.75
2022-09-14T17:43:58.078Z,100062.06
2022-09-14T17:46:27.026Z,100053.41
2022-09-14T17:48:55.373Z,100062.59
2022-09-14T17:51:25.281Z,100057.16
2022-09-14T17:53:56.049Z,100061.53
2022-09-14T17:56:26.003Z,100070.00
2022-09-14T17:59:01.178Z,100082.59
2022-09-14T18:01:29.361Z,100082.63
2022-09-14T18:03:59.639Z,100094.94
2022-09-14T18:06:29.853Z,100105.06
2022-09-14T18:09:02.138Z,100114.31
2022-09-14T18:11:31.060Z,100110.81
2022-09-14T18:13:59.261Z,100116.34
2022-09-14T18:16:28.330Z,100116.34
2022-09-14T18:18:57.494Z,100118.56
2022-09-14T18:21:25.494Z,100120.72
2022-09-14T18:23:55.198Z,100120.03
2022-09-14T18:26:25.404Z,100128.47
2022-09-14T18:28:56.048Z,100127.38
2022-09-14T18:31:24.524Z,100127.06
2022-09-14T18:33:53.568Z,100132.47
2022-09-14T18:36:22.407Z,100138.81
2022-09-14T18:38:52.846Z,100149.50
2022-09-14T18:41:21.877Z,100153.03
2022-09-14T18:43:52.552Z,100158.00
2022-09-14T18:46:25.729Z,100164.44
2022-09-14T18:48:57.625Z,100162.50
2022-09-14T18:51:26.359Z,100173.09
2022-09-14T18:53:57.228Z,100162.56
2022-09-14T18:56:25.116Z,100173.19
2022-09-14T18:58:54.214Z,100166.06
2022-09-14T19:01:22.152Z,100168.00
2022-09-14T19:03:50.170Z,100156.06
2022-09-14T19:06:19.733Z,100161.72
2022-09-14T19:08:47.898Z,100164.31
2022-09-14T19:11:17.903Z,100158.19
2022-09-14T19:13:46.562Z,100163.13
2022-09-14T19:16:16.836Z,100162.78
2022-09-14T19:18:45.933Z,100167.50
2022-09-14T19:21:15.597Z,100169.28
2022-09-14T19:23:44.013Z,100178.50
2022-09-14T19:26:14.580Z,100181.53
2022-09-14T19:28:43.085Z,100183.44
2022-09-14T19:31:12.701Z,100191.06
2022-09-14T19:33:45.557Z,100193.22
2022-09-14T19:36:14.987Z,100197.97
2022-09-14T19:38:43.083Z,100206.56
2022-09-14T19:41:10.916Z,100214.06
2022-09-14T19:43:38.977Z,100220.81
2022-09-14T19:46:07.821Z,100226.53
2022-09-14T19:48:37.086Z,100227.69
2022-09-14T19:51:08.195Z,100228.84
2022-09-14T19:53:37.709Z,100232.94
2022-09-14T19:56:07.242Z,100239.69
2022-09-14T19:58:36.330Z,100239.31
2022-09-14T20:01:04.898Z,100246.69
2022-09-14T20:03:32.845Z,100250.56
2022-09-14T20:06:01.890Z,100258.22
2022-09-14T20:08:32.360Z,100246.78
2022-09-14T20:11:05.172Z,100257.91
2022-09-14T20:13:33.068Z,100264.19
2022-09-14T20:16:00.866Z,100267.16
2022-09-14T20:18:31.906Z,100269.91
2022-09-14T20:20:59.589Z,100269.97
2022-09-14T20:23:27.402Z,100276.84
2022-09-14T20:25:56.770Z,100274.28
2022-09-14T20:28:26.392Z,100268.59
2022-09-14T20:30:58.724Z,100275.69
2022-09-14T20:33:26.577Z,100272.84
2022-09-14T20:36:00.242Z,100279.66
2022-09-14T20:38:28.714Z,100288.59
2022-09-14T20:40:59.627Z,100286.44
2022-09-14T20:43:27.778Z,100289.75
2022-09-14T20:46:03.212Z,100288.34
2022-09-14T20:48:31.925Z,100295.59
2022-09-14T20:51:00.450Z,100299.19
2022-09-14T20:53:29.741Z,100296.72
2022-09-14T20:56:03.405Z,100295.31
2022-09-14T20:58:31.574Z,100303.41
2022-09-14T21:01:03.798Z,100302.50
2022-09-14T21:03:32.047Z,100298.97
2022-09-14T21:06:01.325Z,100299.81
2022-09-14T21:08:29.203Z,100312.38
2022-09-14T21:10:56.954Z,100308.25
2022-09-14T21:13:26.061Z,100310.66
2022-09-14T21:15:53.801Z,100312.66
2022-09-14T21:18:21.570Z,100318.69
2022-09-14T21:20:49.333Z,100322.97
2022-09-14T21:23:17.117Z,100319.38
2022-09-14T21:25:44.846Z,100329.28
2022-09-14T21:28:12.522Z,100336.13
2022-09-14T21:30:41.594Z,100339.56
2022-09-14T21:33:09.294Z,100334.94
2022-09-14T21:35:37.049Z,100345.38
2022-09-14T21:38:04.781Z,100341.38
2022-09-14T21:40:32.588Z,100343.41
2022-09-14T21:43:00.326Z,100341.28
2022-09-14T21:45:28.063Z,100338.72
2022-09-14T21:47:57.189Z,100348.69
2022-09-14T21:50:24.928Z,100345.69
2022-09-14T21:52:52.592Z,100357.66
2022-09-14T21:55:20.345Z,100356.03
2022-09-14T21:57:50.329Z,100361.06
2022-09-14T22:00:22.117Z,100360.59
2022-09-14T22:02:49.828Z,100362.69
2022-09-14T22:05:18.986Z,100367.19
2022-09-14T22:07:46.677Z,100366.38
2022-09-14T22:10:14.445Z,100364.38
2022-09-14T22:12:42.167Z,100373.59
2022-09-14T22:15:10.541Z,100367.78
2022-09-14T22:17:38.599Z,100372.91
2022-09-14T22:20:07.086Z,100376.38
2022-09-14T22:22:36.157Z,100370.09
2022-09-14T22:25:04.061Z,100383.09
2022-09-14T22:27:31.921Z,100379.53
2022-09-14T22:29:59.695Z,100373.44
2022-09-14T22:32:27.408Z,100376.84
2022-09-14T22:34:55.478Z,100380.97
2022-09-14T22:37:23.174Z,100382.97
2022-09-14T22:39:52.282Z,100379.09
2022-09-14T22:42:20.074Z,100385.03
2022-09-14T22:44:47.797Z,100385.03
2022-09-14T22:47:15.529Z,100382.06
2022-09-14T22:49:43.281Z,100383.59
2022-09-14T22:52:10.965Z,100383.81
2022-09-14T22:54:38.719Z,100393.25
2022-09-14T22:57:07.892Z,100386.06
2022-09-14T22:59:35.654Z,100395.34
2022-09-14T23:02:03.445Z,100390.63
2022-09-14T23:04:31.805Z,100395.53
2022-09-14T23:07:01.031Z,100397.03
2022-09-14T23:09:28.696Z,100395.81
2022-09-14T23:11:56.369Z,100398.94
2022-09-14T23:14:26.008Z,100402.63
2022-09-14T23:16:53.785Z,100408.34
2022-09-14T23:19:21.525Z,100406.66
2022-09-14T23:21:49.275Z,100406.94
2022-09-14T23:24:17.029Z,100417.75
2022-09-14T23:26:44.859Z,100413.06
2022-09-14T23:29:15.747Z,100410.41
2022-09-14T23:31:45.597Z,100421.50
2022-09-14T23:34:13.622Z,100419.72
2022-09-14T23:36:41.626Z,100424.94
2022-09-14T23:39:09.840Z,100423.25
2022-09-14T23:41:37.884Z,100420.53
2022-09-14T23:44:05.737Z,100418.38
2022-09-14T23:46:33.730Z,100422.94
2022-09-14T23:49:02.973Z,100420.69
2022-09-14T23:51:30.682Z,100428.69
2022-09-14T23:53:58.438Z,100433.25
2022-09-14T23:56:26.229Z,100425.25
2022-09-14T23:58:53.928Z,100426.09
